11:04
Airports
History
Links
Donate
Help keep this website running!
PayPal
Bitcoin
Information on this page is community maintained and may be outdated or inaccurate and is intended for reference only or PC simulator navigating!
Always use approved charts for navigating.
SDTK
Parati
Parati (SDTK)
Paraty, Rio de Janeiro, Brazil (23970)
(U)
Lat/Lng:23° 13' 28" S / 44° 43' 13" W
-23.224444 / -44.720278
Elevation:10'ft 3mMSL
ID / ICAO:SDTK
Runways:1
Longest:(10-28) 708.1m 2,323ft Asphalt
Distance To
Airport ID:
Nearby WeatherUpdated 04-30-17 10:00 GMT
Nearby weather at SBGW, GUARATINGUETA located 42.9 nautical miles from SDTK
Altimeter: 30.27
Visibility: 4.3 statute miles
Wind: 2 knots (040°)
Temp: 17°c 63°f
Humidity: 88.0%

METAR: SBGW 301000Z 04002KT 7000 FEW008 BKN017 17/15 Q1025

(Powered by phpweather)
Runway 10 / 28
Dimensions:708.1 x 22.9m 2323' x 75'ft
Surface:Asphalt
Runway 10 [A]Runway 28 [B]
Heading:077°TH 257°TH
Lat:
Lng:
23° 13' 30.44"S
44° 43' 25.08"W
23° 13' 25.56"S
44° 43' 0.92"W
Google Map
Nearby Airports
(C) Ubatuba 27.1 NM
SDUB SW 236°
4 Ilha dos Porcos Grandes 28.2 NM
SILI ENE 66°
(U) Angra dos Reis 31.4 NM
SDAG NE 56°
(U) FAZENDA PEDRA BRANCA 35.3 NM
SDIL NE 51°
(C) GUARATINGUETA 42.9 NM
SBGW (WX) NW 314°
4 Fazenda Bom Jardim 44.3 NM
SDCZ ENE 63°
4 Fazenda Portobello 45.6 NM
SDPA ENE 63°
VFR Chart
Flight Planning at SkyVector.com